sensor_id;sensor_type;location;lat;lon;timestamp;P1;durP1;ratioP1;P2;durP2;ratioP2
11964;SDS011;6042;41.326;19.826;2022-07-01T00:00:14;21.93;;;7.23;;
11964;SDS011;6042;41.326;19.826;2022-07-01T00:02:43;33.10;;;7.40;;
11964;SDS011;6042;41.326;19.826;2022-07-01T00:05:13;25.33;;;7.10;;
11964;SDS011;6042;41.326;19.826;2022-07-01T00:07:45;16.10;;;6.23;;
11964;SDS011;6042;41.326;19.826;2022-07-01T00:10:14;16.77;;;5.80;;
11964;SDS011;6042;41.326;19.826;2022-07-01T00:12:43;23.57;;;6.70;;
11964;SDS011;6042;41.326;19.826;2022-07-01T00:15:13;29.67;;;6.50;;
11964;SDS011;6042;41.326;19.826;2022-07-01T00:17:41;13.50;;;5.67;;
11964;SDS011;6042;41.326;19.826;2022-07-01T00:20:10;16.20;;;6.17;;
11964;SDS011;6042;41.326;19.826;2022-07-01T00:22:42;19.67;;;6.67;;
11964;SDS011;6042;41.326;19.826;2022-07-01T00:25:11;27.50;;;7.23;;
11964;SDS011;6042;41.326;19.826;2022-07-01T00:27:40;16.43;;;6.47;;
11964;SDS011;6042;41.326;19.826;2022-07-01T00:30:09;20.33;;;7.03;;
11964;SDS011;6042;41.326;19.826;2022-07-01T00:32:38;14.17;;;6.33;;
11964;SDS011;6042;41.326;19.826;2022-07-01T00:35:07;15.83;;;6.27;;
11964;SDS011;6042;41.326;19.826;2022-07-01T00:37:38;18.80;;;5.77;;
11964;SDS011;6042;41.326;19.826;2022-07-01T00:40:09;16.03;;;6.77;;
11964;SDS011;6042;41.326;19.826;2022-07-01T00:42:38;17.37;;;5.93;;
11964;SDS011;6042;41.326;19.826;2022-07-01T00:45:08;18.33;;;6.37;;
11964;SDS011;6042;41.326;19.826;2022-07-01T00:47:38;16.67;;;5.80;;
11964;SDS011;6042;41.326;19.826;2022-07-01T00:50:09;19.57;;;5.97;;
11964;SDS011;6042;41.326;19.826;2022-07-01T00:52:39;20.97;;;6.83;;
11964;SDS011;6042;41.326;19.826;2022-07-01T00:55:11;49.10;;;8.57;;
11964;SDS011;6042;41.326;19.826;2022-07-01T00:57:41;13.33;;;6.03;;
11964;SDS011;6042;41.326;19.826;2022-07-01T01:00:11;13.27;;;6.00;;
11964;SDS011;6042;41.326;19.826;2022-07-01T01:02:43;11.27;;;5.07;;
11964;SDS011;6042;41.326;19.826;2022-07-01T01:05:11;13.17;;;6.20;;
11964;SDS011;6042;41.326;19.826;2022-07-01T01:07:40;11.67;;;5.83;;
11964;SDS011;6042;41.326;19.826;2022-07-01T01:10:10;12.00;;;5.47;;
11964;SDS011;6042;41.326;19.826;2022-07-01T01:12:40;10.57;;;5.47;;
11964;SDS011;6042;41.326;19.826;2022-07-01T01:15:08;7.43;;;5.13;;
11964;SDS011;6042;41.326;19.826;2022-07-01T01:17:38;10.10;;;5.13;;
11964;SDS011;6042;41.326;19.826;2022-07-01T01:20:06;6.83;;;5.40;;
11964;SDS011;6042;41.326;19.826;2022-07-01T01:22:37;10.73;;;5.30;;
11964;SDS011;6042;41.326;19.826;2022-07-01T01:25:06;9.97;;;5.90;;
11964;SDS011;6042;41.326;19.826;2022-07-01T01:27:35;9.50;;;5.60;;
11964;SDS011;6042;41.326;19.826;2022-07-01T01:30:04;6.03;;;5.13;;
11964;SDS011;6042;41.326;19.826;2022-07-01T01:32:34;7.17;;;4.97;;
11964;SDS011;6042;41.326;19.826;2022-07-01T01:35:04;10.70;;;5.47;;
11964;SDS011;6042;41.326;19.826;2022-07-01T01:37:34;6.70;;;4.93;;
11964;SDS011;6042;41.326;19.826;2022-07-01T01:40:04;11.60;;;5.30;;
11964;SDS011;6042;41.326;19.826;2022-07-01T01:42:34;9.03;;;5.47;;
11964;SDS011;6042;41.326;19.826;2022-07-01T01:45:03;12.77;;;5.33;;
11964;SDS011;6042;41.326;19.826;2022-07-01T01:47:31;10.23;;;5.87;;
11964;SDS011;6042;41.326;19.826;2022-07-01T01:50:00;15.87;;;5.50;;
11964;SDS011;6042;41.326;19.826;2022-07-01T01:52:28;9.60;;;5.23;;
11964;SDS011;6042;41.326;19.826;2022-07-01T01:54:57;11.53;;;5.30;;
11964;SDS011;6042;41.326;19.826;2022-07-01T01:57:27;8.63;;;5.13;;
11964;SDS011;6042;41.326;19.826;2022-07-01T01:59:56;13.27;;;5.27;;
11964;SDS011;6042;41.326;19.826;2022-07-01T02:02:24;14.97;;;5.57;;
11964;SDS011;6042;41.326;19.826;2022-07-01T02:04:53;13.40;;;5.50;;
11964;SDS011;6042;41.326;19.826;2022-07-01T02:07:21;8.73;;;5.50;;
11964;SDS011;6042;41.326;19.826;2022-07-01T02:09:50;11.10;;;5.43;;
11964;SDS011;6042;41.326;19.826;2022-07-01T02:12:18;13.97;;;5.37;;
11964;SDS011;6042;41.326;19.826;2022-07-01T02:14:48;11.43;;;5.27;;
11964;SDS011;6042;41.326;19.826;2022-07-01T02:17:17;11.43;;;5.47;;
11964;SDS011;6042;41.326;19.826;2022-07-01T02:19:45;13.43;;;5.50;;
11964;SDS011;6042;41.326;19.826;2022-07-01T02:22:14;13.20;;;5.53;;
11964;SDS011;6042;41.326;19.826;2022-07-01T02:24:42;13.70;;;5.67;;
11964;SDS011;6042;41.326;19.826;2022-07-01T02:27:11;37.63;;;8.40;;
11964;SDS011;6042;41.326;19.826;2022-07-01T02:29:40;14.00;;;5.93;;
11964;SDS011;6042;41.326;19.826;2022-07-01T02:32:10;14.60;;;6.47;;
11964;SDS011;6042;41.326;19.826;2022-07-01T02:34:39;11.97;;;5.73;;
11964;SDS011;6042;41.326;19.826;2022-07-01T02:37:08;12.00;;;5.63;;
11964;SDS011;6042;41.326;19.826;2022-07-01T02:39:36;14.23;;;6.03;;
11964;SDS011;6042;41.326;19.826;2022-07-01T02:42:05;14.67;;;6.50;;
11964;SDS011;6042;41.326;19.826;2022-07-01T02:44:53;10.53;;;5.80;;
11964;SDS011;6042;41.326;19.826;2022-07-01T02:47:23;9.93;;;5.23;;
11964;SDS011;6042;41.326;19.826;2022-07-01T02:49:55;10.87;;;5.50;;
11964;SDS011;6042;41.326;19.826;2022-07-01T02:52:25;13.57;;;6.23;;
11964;SDS011;6042;41.326;19.826;2022-07-01T02:54:54;12.43;;;6.60;;
11964;SDS011;6042;41.326;19.826;2022-07-01T02:57:22;31.30;;;7.53;;
11964;SDS011;6042;41.326;19.826;2022-07-01T02:59:51;20.40;;;6.70;;
11964;SDS011;6042;41.326;19.826;2022-07-01T03:02:19;18.13;;;6.77;;
11964;SDS011;6042;41.326;19.826;2022-07-01T03:04:50;14.60;;;5.50;;
11964;SDS011;6042;41.326;19.826;2022-07-01T03:07:19;7.73;;;5.50;;
11964;SDS011;6042;41.326;19.826;2022-07-01T03:09:48;12.03;;;6.40;;
11964;SDS011;6042;41.326;19.826;2022-07-01T03:12:17;19.17;;;6.03;;
11964;SDS011;6042;41.326;19.826;2022-07-01T03:14:55;9.60;;;5.60;;
11964;SDS011;6042;41.326;19.826;2022-07-01T03:17:25;17.60;;;6.67;;
11964;SDS011;6042;41.326;19.826;2022-07-01T03:19:55;24.00;;;7.30;;
11964;SDS011;6042;41.326;19.826;2022-07-01T03:22:25;13.23;;;5.57;;
11964;SDS011;6042;41.326;19.826;2022-07-01T03:24:54;71.93;;;11.07;;
11964;SDS011;6042;41.326;19.826;2022-07-01T03:27:23;36.13;;;8.53;;
11964;SDS011;6042;41.326;19.826;2022-07-01T03:29:52;25.90;;;7.10;;
11964;SDS011;6042;41.326;19.826;2022-07-01T03:32:21;13.50;;;6.03;;
11964;SDS011;6042;41.326;19.826;2022-07-01T03:34:50;10.50;;;5.50;;
11964;SDS011;6042;41.326;19.826;2022-07-01T03:37:21;8.17;;;5.50;;
11964;SDS011;6042;41.326;19.826;2022-07-01T03:39:49;10.50;;;5.83;;
11964;SDS011;6042;41.326;19.826;2022-07-01T03:42:20;12.10;;;5.33;;
11964;SDS011;6042;41.326;19.826;2022-07-01T03:44:48;13.80;;;5.47;;
11964;SDS011;6042;41.326;19.826;2022-07-01T03:47:17;12.43;;;5.70;;
11964;SDS011;6042;41.326;19.826;2022-07-01T03:49:45;9.73;;;5.97;;
11964;SDS011;6042;41.326;19.826;2022-07-01T03:52:13;12.43;;;5.77;;
11964;SDS011;6042;41.326;19.826;2022-07-01T03:54:43;7.03;;;5.60;;
11964;SDS011;6042;41.326;19.826;2022-07-01T03:57:11;12.33;;;6.17;;
11964;SDS011;6042;41.326;19.826;2022-07-01T03:59:40;12.70;;;5.57;;
11964;SDS011;6042;41.326;19.826;2022-07-01T04:02:08;7.97;;;5.10;;
11964;SDS011;6042;41.326;19.826;2022-07-01T04:04:37;8.13;;;6.03;;
11964;SDS011;6042;41.326;19.826;2022-07-01T04:07:06;15.57;;;5.60;;
11964;SDS011;6042;41.326;19.826;2022-07-01T04:09:35;18.73;;;5.93;;
11964;SDS011;6042;41.326;19.826;2022-07-01T04:12:06;11.83;;;5.73;;
11964;SDS011;6042;41.326;19.826;2022-07-01T04:14:39;9.53;;;5.80;;
11964;SDS011;6042;41.326;19.826;2022-07-01T04:17:07;10.53;;;5.30;;
11964;SDS011;6042;41.326;19.826;2022-07-01T04:19:36;11.40;;;6.17;;
11964;SDS011;6042;41.326;19.826;2022-07-01T04:22:05;9.67;;;4.87;;
11964;SDS011;6042;41.326;19.826;2022-07-01T04:24:52;12.83;;;5.73;;
11964;SDS011;6042;41.326;19.826;2022-07-01T04:27:21;16.73;;;5.97;;
11964;SDS011;6042;41.326;19.826;2022-07-01T04:29:50;18.83;;;6.17;;
11964;SDS011;6042;41.326;19.826;2022-07-01T04:32:18;11.40;;;5.90;;
11964;SDS011;6042;41.326;19.826;2022-07-01T04:34:47;9.57;;;5.23;;
11964;SDS011;6042;41.326;19.826;2022-07-01T04:37:16;10.37;;;5.70;;
11964;SDS011;6042;41.326;19.826;2022-07-01T04:39:46;17.10;;;6.10;;
11964;SDS011;6042;41.326;19.826;2022-07-01T04:42:14;14.17;;;5.17;;
11964;SDS011;6042;41.326;19.826;2022-07-01T04:44:45;11.63;;;5.83;;
11964;SDS011;6042;41.326;19.826;2022-07-01T04:47:14;9.63;;;5.20;;
11964;SDS011;6042;41.326;19.826;2022-07-01T04:49:43;15.97;;;5.20;;
11964;SDS011;6042;41.326;19.826;2022-07-01T04:52:11;22.67;;;7.30;;
11964;SDS011;6042;41.326;19.826;2022-07-01T04:54:40;16.97;;;5.40;;
11964;SDS011;6042;41.326;19.826;2022-07-01T04:57:08;19.53;;;5.53;;
11964;SDS011;6042;41.326;19.826;2022-07-01T04:59:37;18.83;;;5.53;;
11964;SDS011;6042;41.326;19.826;2022-07-01T05:02:07;12.47;;;5.57;;
11964;SDS011;6042;41.326;19.826;2022-07-01T05:04:38;14.47;;;5.63;;
11964;SDS011;6042;41.326;19.826;2022-07-01T05:07:08;19.67;;;5.87;;
11964;SDS011;6042;41.326;19.826;2022-07-01T05:09:56;40.20;;;9.30;;
11964;SDS011;6042;41.326;19.826;2022-07-01T05:12:26;22.00;;;6.77;;
11964;SDS011;6042;41.326;19.826;2022-07-01T05:14:55;13.00;;;5.10;;
11964;SDS011;6042;41.326;19.826;2022-07-01T05:17:25;14.30;;;5.20;;
11964;SDS011;6042;41.326;19.826;2022-07-01T05:20:14;22.53;;;5.90;;
11964;SDS011;6042;41.326;19.826;2022-07-01T05:23:00;14.47;;;5.70;;
11964;SDS011;6042;41.326;19.826;2022-07-01T05:25:29;17.23;;;5.27;;
11964;SDS011;6042;41.326;19.826;2022-07-01T05:27:57;20.70;;;5.90;;
11964;SDS011;6042;41.326;19.826;2022-07-01T05:30:27;20.10;;;5.70;;
11964;SDS011;6042;41.326;19.826;2022-07-01T05:32:57;17.87;;;5.83;;
11964;SDS011;6042;41.326;19.826;2022-07-01T05:35:25;16.63;;;5.53;;
11964;SDS011;6042;41.326;19.826;2022-07-01T05:37:54;28.60;;;6.63;;
11964;SDS011;6042;41.326;19.826;2022-07-01T05:40:22;30.93;;;7.20;;
11964;SDS011;6042;41.326;19.826;2022-07-01T05:42:52;15.50;;;6.40;;
11964;SDS011;6042;41.326;19.826;2022-07-01T05:45:21;11.10;;;5.30;;
11964;SDS011;6042;41.326;19.826;2022-07-01T05:47:49;39.63;;;7.13;;
11964;SDS011;6042;41.326;19.826;2022-07-01T05:50:19;48.23;;;9.07;;
11964;SDS011;6042;41.326;19.826;2022-07-01T05:52:48;46.60;;;7.93;;
11964;SDS011;6042;41.326;19.826;2022-07-01T05:55:16;16.97;;;5.60;;
11964;SDS011;6042;41.326;19.826;2022-07-01T05:57:45;28.92;;;6.55;;
11964;SDS011;6042;41.326;19.826;2022-07-01T06:00:14;31.87;;;7.33;;
11964;SDS011;6042;41.326;19.826;2022-07-01T06:02:43;78.00;;;11.52;;
11964;SDS011;6042;41.326;19.826;2022-07-01T06:05:12;33.05;;;7.50;;
11964;SDS011;6042;41.326;19.826;2022-07-01T06:07:42;43.53;;;8.05;;
11964;SDS011;6042;41.326;19.826;2022-07-01T06:10:11;53.38;;;8.68;;
11964;SDS011;6042;41.326;19.826;2022-07-01T06:12:39;16.80;;;5.63;;
11964;SDS011;6042;41.326;19.826;2022-07-01T06:15:09;86.10;;;12.75;;
11964;SDS011;6042;41.326;19.826;2022-07-01T06:17:39;33.40;;;7.55;;
11964;SDS011;6042;41.326;19.826;2022-07-01T06:20:08;23.80;;;7.13;;
11964;SDS011;6042;41.326;19.826;2022-07-01T06:22:37;13.73;;;5.60;;
11964;SDS011;6042;41.326;19.826;2022-07-01T06:25:07;11.27;;;5.32;;
11964;SDS011;6042;41.326;19.826;2022-07-01T06:27:37;13.07;;;5.43;;
11964;SDS011;6042;41.326;19.826;2022-07-01T06:30:07;29.65;;;7.63;;
11964;SDS011;6042;41.326;19.826;2022-07-01T06:32:36;23.52;;;6.78;;
11964;SDS011;6042;41.326;19.826;2022-07-01T06:35:05;27.55;;;7.32;;
11964;SDS011;6042;41.326;19.826;2022-07-01T06:37:34;23.13;;;6.20;;
11964;SDS011;6042;41.326;19.826;2022-07-01T06:40:03;27.02;;;7.38;;
11964;SDS011;6042;41.326;19.826;2022-07-01T06:42:35;19.13;;;6.63;;
11964;SDS011;6042;41.326;19.826;2022-07-01T06:45:04;12.20;;;5.88;;
11964;SDS011;6042;41.326;19.826;2022-07-01T06:47:33;11.70;;;6.30;;
11964;SDS011;6042;41.326;19.826;2022-07-01T06:50:03;16.55;;;6.75;;
11964;SDS011;6042;41.326;19.826;2022-07-01T06:52:32;17.23;;;7.68;;
11964;SDS011;6042;41.326;19.826;2022-07-01T06:55:01;14.23;;;6.50;;
11964;SDS011;6042;41.326;19.826;2022-07-01T06:57:29;15.88;;;6.25;;
11964;SDS011;6042;41.326;19.826;2022-07-01T06:59:59;23.15;;;7.28;;
11964;SDS011;6042;41.326;19.826;2022-07-01T07:02:28;15.23;;;6.13;;
11964;SDS011;6042;41.326;19.826;2022-07-01T07:04:56;13.20;;;6.05;;
11964;SDS011;6042;41.326;19.826;2022-07-01T07:07:29;13.73;;;6.22;;
11964;SDS011;6042;41.326;19.826;2022-07-01T07:09:57;14.82;;;5.90;;
11964;SDS011;6042;41.326;19.826;2022-07-01T07:12:27;16.33;;;6.30;;
11964;SDS011;6042;41.326;19.826;2022-07-01T07:14:55;14.57;;;5.75;;
11964;SDS011;6042;41.326;19.826;2022-07-01T07:17:25;12.55;;;5.90;;
11964;SDS011;6042;41.326;19.826;2022-07-01T07:19:54;17.88;;;6.63;;
11964;SDS011;6042;41.326;19.826;2022-07-01T07:22:23;12.25;;;5.50;;
11964;SDS011;6042;41.326;19.826;2022-07-01T07:24:51;13.52;;;6.00;;
11964;SDS011;6042;41.326;19.826;2022-07-01T07:27:20;16.25;;;5.60;;
11964;SDS011;6042;41.326;19.826;2022-07-01T07:29:48;16.17;;;5.13;;
11964;SDS011;6042;41.326;19.826;2022-07-01T07:32:17;18.45;;;5.65;;
11964;SDS011;6042;41.326;19.826;2022-07-01T07:34:47;9.98;;;5.25;;
11964;SDS011;6042;41.326;19.826;2022-07-01T07:37:15;13.13;;;4.93;;
11964;SDS011;6042;41.326;19.826;2022-07-01T07:39:44;11.85;;;4.80;;
11964;SDS011;6042;41.326;19.826;2022-07-01T07:42:13;10.82;;;4.78;;
11964;SDS011;6042;41.326;19.826;2022-07-01T07:44:41;15.65;;;5.00;;
11964;SDS011;6042;41.326;19.826;2022-07-01T07:47:09;11.93;;;5.45;;
11964;SDS011;6042;41.326;19.826;2022-07-01T07:49:38;8.50;;;5.05;;
11964;SDS011;6042;41.326;19.826;2022-07-01T07:52:08;10.57;;;4.75;;
11964;SDS011;6042;41.326;19.826;2022-07-01T07:54:38;11.93;;;5.25;;
11964;SDS011;6042;41.326;19.826;2022-07-01T07:57:07;11.07;;;4.10;;
11964;SDS011;6042;41.326;19.826;2022-07-01T07:59:36;7.03;;;3.50;;
11964;SDS011;6042;41.326;19.826;2022-07-01T08:02:04;8.00;;;3.97;;
11964;SDS011;6042;41.326;19.826;2022-07-01T08:04:33;13.35;;;4.32;;
11964;SDS011;6042;41.326;19.826;2022-07-01T08:07:02;8.27;;;4.55;;
11964;SDS011;6042;41.326;19.826;2022-07-01T08:09:32;10.93;;;4.43;;
11964;SDS011;6042;41.326;19.826;2022-07-01T08:12:01;7.53;;;4.40;;
11964;SDS011;6042;41.326;19.826;2022-07-01T08:14:30;8.65;;;4.32;;
11964;SDS011;6042;41.326;19.826;2022-07-01T08:16:59;16.30;;;5.13;;
11964;SDS011;6042;41.326;19.826;2022-07-01T08:19:27;15.80;;;5.03;;
11964;SDS011;6042;41.326;19.826;2022-07-01T08:21:56;8.70;;;4.03;;
11964;SDS011;6042;41.326;19.826;2022-07-01T08:24:25;9.85;;;4.07;;
11964;SDS011;6042;41.326;19.826;2022-07-01T08:26:55;6.85;;;4.20;;
11964;SDS011;6042;41.326;19.826;2022-07-01T08:29:23;5.93;;;4.07;;
11964;SDS011;6042;41.326;19.826;2022-07-01T08:31:52;10.40;;;3.92;;
11964;SDS011;6042;41.326;19.826;2022-07-01T08:34:20;9.30;;;4.22;;
11964;SDS011;6042;41.326;19.826;2022-07-01T08:36:49;8.38;;;4.38;;
11964;SDS011;6042;41.326;19.826;2022-07-01T08:39:18;12.63;;;4.43;;
11964;SDS011;6042;41.326;19.826;2022-07-01T08:41:46;9.25;;;4.13;;
11964;SDS011;6042;41.326;19.826;2022-07-01T08:44:18;8.38;;;4.20;;
11964;SDS011;6042;41.326;19.826;2022-07-01T08:46:49;7.63;;;3.88;;
11964;SDS011;6042;41.326;19.826;2022-07-01T08:49:17;7.78;;;4.05;;
11964;SDS011;6042;41.326;19.826;2022-07-01T08:51:46;6.82;;;4.47;;
11964;SDS011;6042;41.326;19.826;2022-07-01T08:54:14;8.48;;;3.65;;
11964;SDS011;6042;41.326;19.826;2022-07-01T08:56:43;9.52;;;4.68;;
11964;SDS011;6042;41.326;19.826;2022-07-01T08:59:13;13.57;;;5.03;;
11964;SDS011;6042;41.326;19.826;2022-07-01T09:01:55;9.63;;;4.60;;
11964;SDS011;6042;41.326;19.826;2022-07-01T09:04:25;9.95;;;4.30;;
11964;SDS011;6042;41.326;19.826;2022-07-01T09:06:58;9.07;;;4.65;;
11964;SDS011;6042;41.326;19.826;2022-07-01T09:09:33;10.98;;;4.40;;
11964;SDS011;6042;41.326;19.826;2022-07-01T09:12:03;9.15;;;5.20;;
11964;SDS011;6042;41.326;19.826;2022-07-01T09:14:34;10.30;;;4.43;;
11964;SDS011;6042;41.326;19.826;2022-07-01T09:17:04;8.90;;;4.60;;
11964;SDS011;6042;41.326;19.826;2022-07-01T09:19:34;9.55;;;4.57;;
11964;SDS011;6042;41.326;19.826;2022-07-01T09:22:12;10.52;;;4.65;;
11964;SDS011;6042;41.326;19.826;2022-07-01T09:24:41;9.02;;;4.13;;
11964;SDS011;6042;41.326;19.826;2022-07-01T09:27:11;18.15;;;5.70;;
11964;SDS011;6042;41.326;19.826;2022-07-01T09:29:42;14.50;;;5.05;;
11964;SDS011;6042;41.326;19.826;2022-07-01T09:32:12;13.88;;;5.18;;
11964;SDS011;6042;41.326;19.826;2022-07-01T09:34:42;14.02;;;4.85;;
11964;SDS011;6042;41.326;19.826;2022-07-01T09:37:13;10.20;;;4.47;;
11964;SDS011;6042;41.326;19.826;2022-07-01T09:39:43;8.93;;;4.20;;
11964;SDS011;6042;41.326;19.826;2022-07-01T09:42:13;12.20;;;4.15;;
11964;SDS011;6042;41.326;19.826;2022-07-01T09:44:55;13.35;;;5.47;;
11964;SDS011;6042;41.326;19.826;2022-07-01T09:47:29;13.02;;;4.50;;
11964;SDS011;6042;41.326;19.826;2022-07-01T09:49:59;12.93;;;4.43;;
11964;SDS011;6042;41.326;19.826;2022-07-01T09:52:28;14.80;;;5.53;;
11964;SDS011;6042;41.326;19.826;2022-07-01T09:55:03;18.60;;;4.90;;
11964;SDS011;6042;41.326;19.826;2022-07-01T09:57:32;15.65;;;5.38;;
11964;SDS011;6042;41.326;19.826;2022-07-01T10:00:02;13.82;;;5.43;;
11964;SDS011;6042;41.326;19.826;2022-07-01T10:02:33;13.93;;;4.43;;
11964;SDS011;6042;41.326;19.826;2022-07-01T10:05:02;10.40;;;4.40;;
11964;SDS011;6042;41.326;19.826;2022-07-01T10:07:41;10.73;;;4.93;;
11964;SDS011;6042;41.326;19.826;2022-07-01T10:10:23;13.20;;;4.63;;
11964;SDS011;6042;41.326;19.826;2022-07-01T10:13:03;16.30;;;4.88;;
11964;SDS011;6042;41.326;19.826;2022-07-01T10:15:36;14.05;;;4.78;;
11964;SDS011;6042;41.326;19.826;2022-07-01T10:18:18;9.48;;;4.40;;
11964;SDS011;6042;41.326;19.826;2022-07-01T10:20:48;13.95;;;5.00;;
11964;SDS011;6042;41.326;19.826;2022-07-01T10:23:19;11.25;;;4.55;;
11964;SDS011;6042;41.326;19.826;2022-07-01T10:25:49;11.52;;;4.38;;
11964;SDS011;6042;41.326;19.826;2022-07-01T10:28:22;16.42;;;4.68;;
11964;SDS011;6042;41.326;19.826;2022-07-01T10:30:55;11.23;;;4.35;;
11964;SDS011;6042;41.326;19.826;2022-07-01T10:33:27;14.73;;;4.85;;
11964;SDS011;6042;41.326;19.826;2022-07-01T10:36:15;23.02;;;5.57;;
11964;SDS011;6042;41.326;19.826;2022-07-01T10:41:41;11.65;;;5.20;;
11964;SDS011;6042;41.326;19.826;2022-07-01T10:44:58;11.52;;;4.57;;
11964;SDS011;6042;41.326;19.826;2022-07-01T10:47:34;15.52;;;5.28;;
11964;SDS011;6042;41.326;19.826;2022-07-01T10:50:04;20.13;;;5.15;;
11964;SDS011;6042;41.326;19.826;2022-07-01T10:52:34;11.15;;;4.65;;
11964;SDS011;6042;41.326;19.826;2022-07-01T10:55:04;13.32;;;5.22;;
11964;SDS011;6042;41.326;19.826;2022-07-01T10:57:37;12.90;;;4.45;;
11964;SDS011;6042;41.326;19.826;2022-07-01T11:00:26;13.65;;;5.15;;
11964;SDS011;6042;41.326;19.826;2022-07-01T11:03:11;19.45;;;5.82;;
11964;SDS011;6042;41.326;19.826;2022-07-01T11:05:45;12.18;;;5.43;;
11964;SDS011;6042;41.326;19.826;2022-07-01T11:08:15;14.30;;;4.53;;
11964;SDS011;6042;41.326;19.826;2022-07-01T11:10:54;17.08;;;5.28;;
11964;SDS011;6042;41.326;19.826;2022-07-01T11:13:25;19.63;;;4.53;;
11964;SDS011;6042;41.326;19.826;2022-07-01T11:15:55;12.98;;;4.93;;
11964;SDS011;6042;41.326;19.826;2022-07-01T11:18:26;21.25;;;6.22;;
11964;SDS011;6042;41.326;19.826;2022-07-01T11:21:02;12.85;;;4.75;;
11964;SDS011;6042;41.326;19.826;2022-07-01T11:23:31;17.30;;;5.63;;
11964;SDS011;6042;41.326;19.826;2022-07-01T11:26:06;13.05;;;4.93;;
11964;SDS011;6042;41.326;19.826;2022-07-01T11:28:39;10.55;;;4.70;;
11964;SDS011;6042;41.326;19.826;2022-07-01T11:31:08;16.60;;;5.43;;
11964;SDS011;6042;41.326;19.826;2022-07-01T11:33:38;14.43;;;4.57;;
11964;SDS011;6042;41.326;19.826;2022-07-01T11:36:07;12.73;;;4.15;;
11964;SDS011;6042;41.326;19.826;2022-07-01T11:38:54;13.55;;;4.30;;
11964;SDS011;6042;41.326;19.826;2022-07-01T11:41:40;14.98;;;5.55;;
11964;SDS011;6042;41.326;19.826;2022-07-01T11:44:10;22.95;;;5.78;;
11964;SDS011;6042;41.326;19.826;2022-07-01T11:46:38;21.15;;;5.05;;
11964;SDS011;6042;41.326;19.826;2022-07-01T11:49:12;20.67;;;4.47;;
11964;SDS011;6042;41.326;19.826;2022-07-01T11:51:40;21.48;;;10.13;;
11964;SDS011;6042;41.326;19.826;2022-07-01T11:54:18;18.13;;;5.20;;
11964;SDS011;6042;41.326;19.826;2022-07-01T11:56:49;17.88;;;5.20;;
11964;SDS011;6042;41.326;19.826;2022-07-01T11:59:17;13.82;;;4.18;;
11964;SDS011;6042;41.326;19.826;2022-07-01T12:01:53;16.20;;;4.60;;
11964;SDS011;6042;41.326;19.826;2022-07-01T12:04:24;18.67;;;4.60;;
11964;SDS011;6042;41.326;19.826;2022-07-01T12:06:53;13.50;;;4.50;;
11964;SDS011;6042;41.326;19.826;2022-07-01T12:09:23;13.13;;;4.35;;
11964;SDS011;6042;41.326;19.826;2022-07-01T12:11:52;14.50;;;4.45;;
11964;SDS011;6042;41.326;19.826;2022-07-01T12:14:22;16.55;;;5.57;;
11964;SDS011;6042;41.326;19.826;2022-07-01T12:16:52;16.05;;;4.93;;
11964;SDS011;6042;41.326;19.826;2022-07-01T12:19:27;18.45;;;4.13;;
11964;SDS011;6042;41.326;19.826;2022-07-01T12:21:57;19.25;;;4.93;;
11964;SDS011;6042;41.326;19.826;2022-07-01T12:24:26;15.48;;;4.55;;
11964;SDS011;6042;41.326;19.826;2022-07-01T12:27:01;21.52;;;5.75;;
11964;SDS011;6042;41.326;19.826;2022-07-01T12:29:31;16.20;;;4.72;;
11964;SDS011;6042;41.326;19.826;2022-07-01T12:32:18;13.57;;;4.70;;
11964;SDS011;6042;41.326;19.826;2022-07-01T12:34:52;14.48;;;4.55;;
11964;SDS011;6042;41.326;19.826;2022-07-01T12:37:27;24.52;;;5.63;;
11964;SDS011;6042;41.326;19.826;2022-07-01T12:39:58;12.90;;;3.80;;
11964;SDS011;6042;41.326;19.826;2022-07-01T12:42:29;19.40;;;4.65;;
11964;SDS011;6042;41.326;19.826;2022-07-01T12:45:00;12.50;;;3.83;;
11964;SDS011;6042;41.326;19.826;2022-07-01T12:47:32;20.92;;;5.35;;
11964;SDS011;6042;41.326;19.826;2022-07-01T12:50:16;10.02;;;3.83;;
11964;SDS011;6042;41.326;19.826;2022-07-01T12:52:57;17.48;;;4.40;;
11964;SDS011;6042;41.326;19.826;2022-07-01T12:55:28;14.02;;;4.05;;
11964;SDS011;6042;41.326;19.826;2022-07-01T12:58:00;10.13;;;3.60;;
11964;SDS011;6042;41.326;19.826;2022-07-01T13:00:30;10.23;;;4.07;;
11964;SDS011;6042;41.326;19.826;2022-07-01T13:03:00;14.40;;;4.10;;
11964;SDS011;6042;41.326;19.826;2022-07-01T13:05:31;16.73;;;3.88;;
11964;SDS011;6042;41.326;19.826;2022-07-01T13:08:02;14.70;;;4.00;;
11964;SDS011;6042;41.326;19.826;2022-07-01T13:10:32;13.38;;;4.18;;
11964;SDS011;6042;41.326;19.826;2022-07-01T13:13:01;13.77;;;4.38;;
11964;SDS011;6042;41.326;19.826;2022-07-01T13:15:30;15.80;;;4.95;;
11964;SDS011;6042;41.326;19.826;2022-07-01T13:17:59;22.73;;;4.55;;
11964;SDS011;6042;41.326;19.826;2022-07-01T13:20:27;14.02;;;4.65;;
11964;SDS011;6042;41.326;19.826;2022-07-01T13:22:58;11.73;;;4.30;;
11964;SDS011;6042;41.326;19.826;2022-07-01T13:25:26;11.13;;;4.18;;
11964;SDS011;6042;41.326;19.826;2022-07-01T13:27:55;15.82;;;4.25;;
11964;SDS011;6042;41.326;19.826;2022-07-01T13:30:24;16.25;;;4.00;;
11964;SDS011;6042;41.326;19.826;2022-07-01T13:32:52;15.25;;;4.18;;
11964;SDS011;6042;41.326;19.826;2022-07-01T13:35:21;13.85;;;4.35;;
11964;SDS011;6042;41.326;19.826;2022-07-01T13:37:51;15.35;;;4.13;;
11964;SDS011;6042;41.326;19.826;2022-07-01T13:40:21;13.55;;;4.43;;
11964;SDS011;6042;41.326;19.826;2022-07-01T13:42:49;11.27;;;4.28;;
11964;SDS011;6042;41.326;19.826;2022-07-01T13:45:18;12.90;;;4.00;;
11964;SDS011;6042;41.326;19.826;2022-07-01T13:47:47;15.25;;;4.10;;
11964;SDS011;6042;41.326;19.826;2022-07-01T13:50:15;12.48;;;4.10;;
11964;SDS011;6042;41.326;19.826;2022-07-01T13:52:46;15.20;;;4.22;;
11964;SDS011;6042;41.326;19.826;2022-07-01T13:55:15;17.48;;;4.10;;
11964;SDS011;6042;41.326;19.826;2022-07-01T13:57:45;14.23;;;4.22;;
11964;SDS011;6042;41.326;19.826;2022-07-01T14:00:15;21.15;;;7.18;;
11964;SDS011;6042;41.326;19.826;2022-07-01T14:02:45;22.10;;;4.85;;
11964;SDS011;6042;41.326;19.826;2022-07-01T14:05:14;15.73;;;4.05;;
11964;SDS011;6042;41.326;19.826;2022-07-01T14:07:42;21.90;;;5.22;;
11964;SDS011;6042;41.326;19.826;2022-07-01T14:10:11;12.23;;;3.63;;
11964;SDS011;6042;41.326;19.826;2022-07-01T14:12:40;11.65;;;3.90;;
11964;SDS011;6042;41.326;19.826;2022-07-01T14:15:10;12.15;;;4.18;;
11964;SDS011;6042;41.326;19.826;2022-07-01T14:17:39;17.10;;;3.92;;
11964;SDS011;6042;41.326;19.826;2022-07-01T14:20:08;21.20;;;4.60;;
11964;SDS011;6042;41.326;19.826;2022-07-01T14:22:37;14.02;;;3.80;;
11964;SDS011;6042;41.326;19.826;2022-07-01T14:25:06;13.05;;;4.07;;
11964;SDS011;6042;41.326;19.826;2022-07-01T14:27:35;13.45;;;4.03;;
11964;SDS011;6042;41.326;19.826;2022-07-01T14:30:04;19.17;;;4.25;;
11964;SDS011;6042;41.326;19.826;2022-07-01T14:32:35;16.05;;;4.43;;
11964;SDS011;6042;41.326;19.826;2022-07-01T14:35:05;13.68;;;4.20;;
11964;SDS011;6042;41.326;19.826;2022-07-01T14:37:34;13.77;;;5.05;;
11964;SDS011;6042;41.326;19.826;2022-07-01T14:40:04;19.25;;;5.65;;
11964;SDS011;6042;41.326;19.826;2022-07-01T14:42:33;13.18;;;4.30;;
11964;SDS011;6042;41.326;19.826;2022-07-01T14:45:03;13.48;;;4.15;;
11964;SDS011;6042;41.326;19.826;2022-07-01T14:47:32;12.73;;;4.22;;
11964;SDS011;6042;41.326;19.826;2022-07-01T14:50:02;9.75;;;3.80;;
11964;SDS011;6042;41.326;19.826;2022-07-01T14:52:32;13.63;;;4.07;;
11964;SDS011;6042;41.326;19.826;2022-07-01T14:55:00;12.23;;;3.80;;
11964;SDS011;6042;41.326;19.826;2022-07-01T14:57:29;12.38;;;3.75;;